createdAt,value
2024-02-18T00:02:26.441Z,15.40
2024-02-18T00:04:54.948Z,16.70
2024-02-18T00:07:24.107Z,17.10
2024-02-18T00:09:54.329Z,17.20
2024-02-18T00:12:25.030Z,16.60
2024-02-18T00:14:53.342Z,17.40
2024-02-18T00:17:21.921Z,17.20
2024-02-18T00:19:50.381Z,15.70
2024-02-18T00:22:18.853Z,15.20
2024-02-18T00:24:47.260Z,16.00
2024-02-18T00:27:15.781Z,14.90
2024-02-18T00:29:44.214Z,16.30
2024-02-18T00:32:12.563Z,15.30
2024-02-18T00:34:41.024Z,15.80
2024-02-18T00:37:09.529Z,14.10
2024-02-18T00:39:38.066Z,14.60
2024-02-18T00:42:07.791Z,13.90
2024-02-18T00:44:36.106Z,13.10
2024-02-18T00:47:06.377Z,13.30
2024-02-18T00:49:35.854Z,12.70
2024-02-18T00:52:05.176Z,12.70
2024-02-18T00:54:33.536Z,12.90
2024-02-18T00:57:01.969Z,14.50
2024-02-18T00:59:30.395Z,14.10
2024-02-18T01:01:58.832Z,12.90
2024-02-18T01:04:27.597Z,13.30
2024-02-18T01:06:55.955Z,13.00
2024-02-18T01:09:24.328Z,13.40
2024-02-18T01:11:52.892Z,13.80
2024-02-18T01:14:21.354Z,13.20
2024-02-18T01:16:50.892Z,12.40
2024-02-18T01:19:19.338Z,13.40
2024-02-18T01:21:48.108Z,11.60
2024-02-18T01:24:16.511Z,13.40
2024-02-18T01:26:44.756Z,12.50
2024-02-18T01:29:13.078Z,12.90
2024-02-18T01:31:41.598Z,14.10
2024-02-18T01:34:10.952Z,13.10
2024-02-18T01:36:39.721Z,14.00
2024-02-18T01:39:09.673Z,13.90
2024-02-18T01:41:38.779Z,13.20
2024-02-18T01:44:07.318Z,14.90
2024-02-18T01:46:35.888Z,15.20
2024-02-18T01:49:04.814Z,14.00
2024-02-18T01:51:33.501Z,14.40
2024-02-18T01:54:02.705Z,14.40
2024-02-18T01:56:31.331Z,13.80
2024-02-18T01:59:00.227Z,15.90
2024-02-18T02:01:29.169Z,16.30
2024-02-18T02:03:58.345Z,16.50
2024-02-18T02:06:30.726Z,15.40
2024-02-18T02:09:00.056Z,14.80
2024-02-18T02:11:28.615Z,15.60
2024-02-18T02:13:57.058Z,14.70
2024-02-18T02:16:25.532Z,15.00
2024-02-18T02:18:53.975Z,15.00
2024-02-18T02:21:22.324Z,17.10
2024-02-18T02:23:51.455Z,17.30
2024-02-18T02:26:22.162Z,16.40
2024-02-18T02:29:13.653Z,17.40
2024-02-18T02:31:43.793Z,17.30
2024-02-18T02:34:13.336Z,18.10
2024-02-18T02:36:42.017Z,17.20
2024-02-18T02:39:11.897Z,15.30
2024-02-18T02:41:40.625Z,17.10
2024-02-18T02:44:09.653Z,18.90
2024-02-18T02:46:37.948Z,16.80
2024-02-18T02:49:06.558Z,17.30
2024-02-18T02:51:34.925Z,17.80
2024-02-18T02:54:03.453Z,19.20
2024-02-18T02:56:32.029Z,18.40
2024-02-18T02:59:00.338Z,16.60
2024-02-18T03:01:28.812Z,17.60
2024-02-18T03:03:57.347Z,15.90
2024-02-18T03:06:25.962Z,17.30
2024-02-18T03:08:54.368Z,14.20
2024-02-18T03:11:22.852Z,14.70
2024-02-18T03:13:51.162Z,15.60
2024-02-18T03:16:19.515Z,15.20
2024-02-18T03:18:48.065Z,15.10
2024-02-18T03:21:16.503Z,14.40
2024-02-18T03:23:45.494Z,14.10
2024-02-18T03:26:14.926Z,15.10
2024-02-18T03:28:43.290Z,16.10
2024-02-18T03:31:19.331Z,17.40
2024-02-18T03:36:16.546Z,15.90
2024-02-18T03:38:44.927Z,14.90
2024-02-18T03:41:13.274Z,15.60
2024-02-18T03:43:41.606Z,16.70
2024-02-18T03:46:10.085Z,15.60
2024-02-18T03:48:38.609Z,14.40
2024-02-18T03:51:07.243Z,15.30
2024-02-18T03:53:35.560Z,14.50
2024-02-18T03:56:05.756Z,17.10
2024-02-18T03:58:34.334Z,16.60
2024-02-18T04:01:02.781Z,17.10
2024-02-18T04:03:31.234Z,14.80
2024-02-18T04:05:59.653Z,17.10
2024-02-18T04:08:28.050Z,17.30
2024-02-18T04:10:56.477Z,15.40
2024-02-18T04:13:24.797Z,15.70
2024-02-18T04:15:53.240Z,17.00
2024-02-18T04:18:21.723Z,15.70
2024-02-18T04:20:52.540Z,15.80
2024-02-18T04:23:21.748Z,15.00
2024-02-18T04:25:49.996Z,15.20
2024-02-18T04:28:18.471Z,13.70
2024-02-18T04:30:47.866Z,14.30
2024-02-18T04:33:16.211Z,15.10
2024-02-18T04:35:44.556Z,15.20
2024-02-18T04:38:12.829Z,15.00
2024-02-18T04:40:41.377Z,15.60
2024-02-18T04:43:11.141Z,15.50
2024-02-18T04:45:40.302Z,14.80
2024-02-18T04:48:08.905Z,16.80
2024-02-18T04:50:37.341Z,16.00
2024-02-18T04:53:05.805Z,17.00
2024-02-18T04:55:34.097Z,17.30
2024-02-18T04:58:02.551Z,17.70
2024-02-18T05:00:31.934Z,18.10
2024-02-18T05:03:00.328Z,17.30
2024-02-18T05:05:28.953Z,18.10
2024-02-18T05:07:57.859Z,16.50
2024-02-18T05:10:26.312Z,18.20
2024-02-18T05:12:55.900Z,18.80
2024-02-18T05:15:25.574Z,18.60
2024-02-18T05:17:54.073Z,21.10
2024-02-18T05:20:23.308Z,20.50
2024-02-18T05:22:52.569Z,21.60
2024-02-18T05:25:20.823Z,18.80
2024-02-18T05:27:49.137Z,19.60
2024-02-18T05:30:17.587Z,19.90
2024-02-18T05:32:46.847Z,22.10
2024-02-18T05:35:15.434Z,20.20
2024-02-18T05:37:44.429Z,18.60
2024-02-18T05:40:12.846Z,17.30
2024-02-18T05:42:41.989Z,17.00
2024-02-18T05:45:12.064Z,17.40
2024-02-18T05:47:40.604Z,18.30
2024-02-18T05:50:10.145Z,18.70
2024-02-18T05:52:40.004Z,18.40
2024-02-18T05:55:09.316Z,20.00
2024-02-18T05:57:37.872Z,18.10
2024-02-18T06:00:07.072Z,17.80
2024-02-18T06:02:37.397Z,18.50
2024-02-18T06:05:06.452Z,18.20
2024-02-18T06:07:34.947Z,18.70
2024-02-18T06:10:03.549Z,19.40
2024-02-18T06:12:32.232Z,19.00
2024-02-18T06:15:01.042Z,19.20
2024-02-18T06:17:30.410Z,18.70
2024-02-18T06:19:59.271Z,18.30
2024-02-18T06:22:28.009Z,18.40
2024-02-18T06:24:56.674Z,17.90
2024-02-18T06:27:26.268Z,16.90
2024-02-18T06:29:55.349Z,16.40
2024-02-18T06:32:24.884Z,18.30
2024-02-18T06:34:55.671Z,16.80
2024-02-18T06:37:24.736Z,17.50
2024-02-18T06:39:53.114Z,17.30
2024-02-18T06:42:21.505Z,16.40
2024-02-18T06:44:56.349Z,17.70
2024-02-18T06:47:24.748Z,17.50
2024-02-18T06:49:53.559Z,19.40
2024-02-18T06:52:25.220Z,18.10
2024-02-18T06:54:53.792Z,18.30
2024-02-18T06:57:24.323Z,19.30
2024-02-18T06:59:52.876Z,22.40
2024-02-18T07:02:21.279Z,20.10
2024-02-18T07:04:49.898Z,18.00
2024-02-18T07:07:18.403Z,21.10
2024-02-18T07:09:48.961Z,18.60
2024-02-18T07:12:17.617Z,18.60
2024-02-18T07:14:45.880Z,17.30
2024-02-18T07:17:21.458Z,16.70
2024-02-18T07:19:50.794Z,17.20
2024-02-18T07:22:21.765Z,19.40
2024-02-18T07:24:50.276Z,18.00
2024-02-18T07:27:18.592Z,20.30
2024-02-18T07:29:46.897Z,19.40
2024-02-18T07:32:15.408Z,20.30
2024-02-18T07:34:43.858Z,20.60
2024-02-18T07:37:12.517Z,21.40
2024-02-18T07:39:41.108Z,20.20
2024-02-18T07:42:09.667Z,18.30
2024-02-18T07:44:38.625Z,17.50
2024-02-18T07:47:07.037Z,17.50
2024-02-18T07:49:36.138Z,20.20
2024-02-18T07:52:06.002Z,19.70
2024-02-18T07:54:34.442Z,22.60
2024-02-18T07:57:02.900Z,19.20
2024-02-18T07:59:33.019Z,20.60
2024-02-18T08:02:03.227Z,19.20
2024-02-18T08:04:31.810Z,19.10
2024-02-18T08:07:00.279Z,21.00
2024-02-18T08:09:28.777Z,19.60
2024-02-18T08:11:57.292Z,19.90
2024-02-18T08:14:25.747Z,20.20
2024-02-18T08:16:56.506Z,20.30
2024-02-18T08:19:25.002Z,19.90
2024-02-18T08:21:53.672Z,20.90
2024-02-18T08:24:22.145Z,22.80
2024-02-18T08:26:50.696Z,21.30
2024-02-18T08:29:19.236Z,20.80
2024-02-18T08:31:47.704Z,18.90
2024-02-18T08:34:16.220Z,19.10
2024-02-18T08:36:45.959Z,21.10
2024-02-18T08:39:14.446Z,23.10
2024-02-18T08:41:42.777Z,27.40
2024-02-18T08:44:13.613Z,26.90
2024-02-18T08:46:43.100Z,26.00
2024-02-18T08:49:11.595Z,23.60
2024-02-18T08:51:40.790Z,22.80
2024-02-18T08:54:10.389Z,20.80
2024-02-18T08:56:38.727Z,23.40
2024-02-18T08:59:08.369Z,27.90
2024-02-18T09:01:36.839Z,29.30
2024-02-18T09:04:05.680Z,26.90
2024-02-18T09:06:34.507Z,28.10
2024-02-18T09:09:03.103Z,26.50
2024-02-18T09:11:31.485Z,24.10
2024-02-18T09:14:00.649Z,27.40
2024-02-18T09:16:31.488Z,27.10
2024-02-18T09:18:59.933Z,24.60
2024-02-18T09:21:28.481Z,22.80
2024-02-18T09:24:00.829Z,24.30
2024-02-18T09:26:32.096Z,27.00
2024-02-18T09:29:00.431Z,23.70
2024-02-18T09:31:28.859Z,26.90
2024-02-18T09:33:57.528Z,25.50
2024-02-18T09:36:25.921Z,25.00
2024-02-18T09:38:57.354Z,27.90
2024-02-18T09:41:29.071Z,27.30
2024-02-18T09:44:08.308Z,28.80
2024-02-18T09:46:38.391Z,28.60
2024-02-18T09:49:09.990Z,26.80
2024-02-18T09:51:39.211Z,25.70
2024-02-18T09:54:10.081Z,25.60
2024-02-18T09:56:38.884Z,26.40
2024-02-18T09:59:09.594Z,25.50
2024-02-18T10:01:38.390Z,23.80
2024-02-18T10:04:09.431Z,25.20
2024-02-18T10:06:37.938Z,24.20
2024-02-18T10:09:09.292Z,25.20
2024-02-18T10:11:37.876Z,24.20
2024-02-18T10:14:08.619Z,25.50
2024-02-18T10:16:37.735Z,21.00
2024-02-18T10:19:10.886Z,23.30
2024-02-18T10:21:39.509Z,23.30
2024-02-18T10:24:10.677Z,22.80
2024-02-18T10:26:40.404Z,24.70
2024-02-18T10:29:10.853Z,25.50
2024-02-18T10:31:39.169Z,23.50
2024-02-18T10:34:07.757Z,24.40
2024-02-18T10:36:38.209Z,22.50
2024-02-18T10:39:14.297Z,23.70
2024-02-18T10:41:49.932Z,23.70
2024-02-18T10:44:19.412Z,22.70
2024-02-18T10:46:49.852Z,25.20
2024-02-18T10:49:34.400Z,23.60
2024-02-18T10:52:17.819Z,22.80
2024-02-18T10:54:52.926Z,27.00
2024-02-18T10:57:27.051Z,26.60
2024-02-18T11:00:04.589Z,25.20
2024-02-18T11:03:05.750Z,26.20
2024-02-18T11:05:37.717Z,25.30
2024-02-18T11:08:13.897Z,22.90
2024-02-18T11:13:15.839Z,23.50
2024-02-18T11:15:44.413Z,25.30
2024-02-18T11:18:14.759Z,24.40
2024-02-18T11:20:43.587Z,23.70
2024-02-18T11:23:12.198Z,23.50
2024-02-18T11:25:41.173Z,23.50
2024-02-18T11:28:10.071Z,24.30
2024-02-18T11:30:38.534Z,23.50
2024-02-18T11:33:08.741Z,24.60
2024-02-18T11:35:37.229Z,25.40
2024-02-18T11:38:08.475Z,25.90
2024-02-18T11:40:47.373Z,27.50
2024-02-18T11:43:16.268Z,25.30
2024-02-18T11:45:52.399Z,28.40
2024-02-18T11:48:21.865Z,24.00
2024-02-18T11:50:51.862Z,22.70
2024-02-18T11:53:21.617Z,23.40
2024-02-18T11:55:50.937Z,22.80
2024-02-18T11:58:19.436Z,23.20
2024-02-18T12:00:47.947Z,22.60
2024-02-18T12:03:18.487Z,21.50
2024-02-18T12:05:47.111Z,25.40
2024-02-18T12:08:16.345Z,24.00
2024-02-18T12:10:44.720Z,24.40
2024-02-18T12:13:13.273Z,24.40
2024-02-18T12:15:44.896Z,22.90
2024-02-18T12:18:13.793Z,23.90
2024-02-18T12:20:44.879Z,24.60
2024-02-18T12:23:13.167Z,23.20
2024-02-18T12:25:42.196Z,22.70
2024-02-18T12:28:11.463Z,22.00
2024-02-18T12:30:40.272Z,22.60
2024-02-18T12:33:09.481Z,23.30
2024-02-18T12:35:38.532Z,23.20
2024-02-18T12:38:08.683Z,23.30
2024-02-18T12:40:39.169Z,23.80
2024-02-18T12:43:38.870Z,23.20
2024-02-18T12:46:06.004Z,23.00
2024-02-18T12:48:38.826Z,23.80
2024-02-18T12:51:16.725Z,22.00
2024-02-18T12:53:46.110Z,20.50
2024-02-18T12:56:17.437Z,23.10
2024-02-18T12:58:46.076Z,22.70
2024-02-18T13:01:15.104Z,22.90
2024-02-18T13:03:47.755Z,22.10
2024-02-18T13:06:19.133Z,23.90
2024-02-18T13:08:47.781Z,21.40
2024-02-18T13:11:18.126Z,24.40
2024-02-18T13:13:47.190Z,22.80
2024-02-18T13:16:15.793Z,22.80
2024-02-18T13:18:45.304Z,22.20
2024-02-18T13:21:16.682Z,25.60
2024-02-18T13:23:45.412Z,24.40
2024-02-18T13:26:13.910Z,24.70
2024-02-18T13:28:42.485Z,22.60
2024-02-18T13:31:14.476Z,24.70
2024-02-18T13:33:43.970Z,24.20
2024-02-18T13:36:13.294Z,23.10
2024-02-18T13:38:41.777Z,24.00
2024-02-18T13:41:10.241Z,26.40
2024-02-18T13:43:39.092Z,24.30
2024-02-18T13:46:07.686Z,26.60
2024-02-18T13:48:37.102Z,26.10
2024-02-18T13:51:06.293Z,23.70
2024-02-18T13:53:35.850Z,24.50
2024-02-18T13:56:04.796Z,25.80
2024-02-18T13:58:33.842Z,26.30
2024-02-18T14:01:03.026Z,26.60
2024-02-18T14:03:31.421Z,25.20
2024-02-18T14:05:59.915Z,27.70
2024-02-18T14:08:28.366Z,24.80
2024-02-18T14:10:56.804Z,22.70
2024-02-18T14:13:25.499Z,26.50
2024-02-18T14:15:55.088Z,24.00
2024-02-18T14:18:24.708Z,25.00
2024-02-18T14:20:56.541Z,22.90
2024-02-18T14:23:25.386Z,26.10
2024-02-18T14:25:53.840Z,24.50
2024-02-18T14:28:23.109Z,24.70
2024-02-18T14:30:51.668Z,24.90
2024-02-18T14:33:20.202Z,23.70
2024-02-18T14:35:48.713Z,22.70
2024-02-18T14:38:17.055Z,23.10
2024-02-18T14:40:45.523Z,23.50
2024-02-18T14:43:15.803Z,23.90
2024-02-18T14:45:45.454Z,24.60
2024-02-18T14:48:14.156Z,24.50
2024-02-18T14:50:42.832Z,22.70
2024-02-18T14:53:11.912Z,24.70
2024-02-18T14:55:40.381Z,26.30
2024-02-18T14:58:10.315Z,29.60
2024-02-18T15:00:38.902Z,24.60
2024-02-18T15:03:07.247Z,24.70
2024-02-18T15:05:35.642Z,21.90
2024-02-18T15:08:04.457Z,23.20
2024-02-18T15:10:33.001Z,22.90
2024-02-18T15:13:05.588Z,21.70
2024-02-18T15:15:36.067Z,23.50
2024-02-18T15:18:04.613Z,21.80
2024-02-18T15:20:33.209Z,18.70
2024-02-18T15:23:02.157Z,22.50
2024-02-18T15:25:30.607Z,21.40
2024-02-18T15:27:59.177Z,23.10
2024-02-18T15:30:27.682Z,24.50
2024-02-18T15:32:56.601Z,22.70
2024-02-18T15:35:25.587Z,20.20
2024-02-18T15:37:55.170Z,21.40
2024-02-18T15:40:23.836Z,23.50
2024-02-18T15:42:55.041Z,22.20
2024-02-18T15:45:23.556Z,21.40
2024-02-18T15:47:52.796Z,20.70
2024-02-18T15:50:21.368Z,21.70
2024-02-18T15:52:50.502Z,20.30
2024-02-18T15:55:22.980Z,20.90
2024-02-18T15:57:51.672Z,21.30
2024-02-18T16:00:21.399Z,21.10
2024-02-18T16:02:49.858Z,19.50
2024-02-18T16:05:18.539Z,19.30
2024-02-18T16:07:48.218Z,20.50
2024-02-18T16:10:22.980Z,21.10
2024-02-18T16:12:52.684Z,21.00
2024-02-18T16:15:22.934Z,22.30
2024-02-18T16:17:51.500Z,20.10
2024-02-18T16:20:20.143Z,19.30
2024-02-18T16:22:49.354Z,19.70
2024-02-18T16:25:18.095Z,20.30
2024-02-18T16:27:48.771Z,20.60
2024-02-18T16:30:21.942Z,20.90
2024-02-18T16:32:50.570Z,18.20
2024-02-18T16:35:19.820Z,17.30
2024-02-18T16:37:48.760Z,15.20
2024-02-18T16:40:19.206Z,16.00
2024-02-18T16:42:49.566Z,15.10
2024-02-18T16:45:18.126Z,13.70
2024-02-18T16:47:47.119Z,14.30
2024-02-18T16:50:15.846Z,14.70
2024-02-18T16:52:45.465Z,13.60
2024-02-18T16:55:14.388Z,13.30
2024-02-18T16:57:43.145Z,15.00
2024-02-18T17:00:15.815Z,13.90
2024-02-18T17:02:45.974Z,13.40
2024-02-18T17:05:15.536Z,15.40
2024-02-18T17:07:44.394Z,14.00
2024-02-18T17:10:13.108Z,14.20
2024-02-18T17:12:45.666Z,13.10
2024-02-18T17:15:14.075Z,13.90
2024-02-18T17:17:42.525Z,13.00
2024-02-18T17:20:11.719Z,13.90
2024-02-18T17:22:40.509Z,14.10
2024-02-18T17:25:09.201Z,13.10
2024-02-18T17:27:37.617Z,15.20
2024-02-18T17:30:06.545Z,13.10
2024-02-18T17:32:34.942Z,13.10
2024-02-18T17:35:05.588Z,12.00
2024-02-18T17:37:36.467Z,14.20
2024-02-18T17:40:05.980Z,15.60
2024-02-18T17:42:35.342Z,13.70
2024-02-18T17:45:06.413Z,14.30
2024-02-18T17:47:37.084Z,13.90
2024-02-18T17:50:11.279Z,14.20
2024-02-18T17:52:39.760Z,13.90
2024-02-18T17:55:08.864Z,14.20
2024-02-18T17:57:39.758Z,13.10
2024-02-18T18:00:11.185Z,15.30
2024-02-18T18:02:39.966Z,14.50
2024-02-18T18:05:09.192Z,14.70
2024-02-18T18:07:38.050Z,14.90
2024-02-18T18:10:08.740Z,15.00
2024-02-18T18:12:37.707Z,15.70
2024-02-18T18:15:09.681Z,14.60
2024-02-18T18:17:38.161Z,14.50
2024-02-18T18:20:12.275Z,14.80
2024-02-18T18:22:42.231Z,15.10
2024-02-18T18:25:11.510Z,15.70
2024-02-18T18:27:41.851Z,14.90
2024-02-18T18:30:10.634Z,14.90
2024-02-18T18:32:39.067Z,15.50
2024-02-18T18:35:10.453Z,14.60
2024-02-18T18:37:41.382Z,15.90
2024-02-18T18:40:11.280Z,13.50
2024-02-18T18:42:39.766Z,13.80
2024-02-18T18:45:10.445Z,13.80
2024-02-18T18:47:38.914Z,14.50
2024-02-18T18:50:09.335Z,14.40
2024-02-18T18:52:38.902Z,13.50
2024-02-18T18:55:07.794Z,13.60
2024-02-18T18:57:36.255Z,12.70
2024-02-18T19:00:07.147Z,14.20
2024-02-18T19:02:38.768Z,11.70
2024-02-18T19:05:07.630Z,13.10
2024-02-18T19:07:36.523Z,12.20
2024-02-18T19:10:06.905Z,12.00
2024-02-18T19:12:35.687Z,11.80
2024-02-18T19:15:08.123Z,10.90
2024-02-18T19:17:44.851Z,10.60
2024-02-18T19:20:13.875Z,11.30
2024-02-18T19:22:42.546Z,9.60
2024-02-18T19:25:11.346Z,9.90
2024-02-18T19:27:39.758Z,9.30
2024-02-18T19:30:15.202Z,8.20
2024-02-18T19:32:43.693Z,9.20
2024-02-18T19:35:16.356Z,8.60
2024-02-18T19:37:45.276Z,9.00
2024-02-18T19:40:14.931Z,7.60
2024-02-18T19:42:45.135Z,7.90
2024-02-18T19:45:16.266Z,8.80
2024-02-18T19:47:47.441Z,8.00
2024-02-18T19:50:17.766Z,7.60
2024-02-18T19:52:48.915Z,7.10
2024-02-18T19:55:18.992Z,6.90
2024-02-18T19:57:47.461Z,6.30
2024-02-18T20:00:18.489Z,6.40
2024-02-18T20:02:49.427Z,6.20
2024-02-18T20:05:17.895Z,4.60
2024-02-18T20:07:46.316Z,5.70
2024-02-18T20:10:14.809Z,4.50
2024-02-18T20:12:45.163Z,4.10
2024-02-18T20:15:14.995Z,3.90
2024-02-18T20:17:46.098Z,3.00
2024-02-18T20:20:15.932Z,3.00
2024-02-18T20:22:46.299Z,3.00
2024-02-18T20:25:19.992Z,2.80
2024-02-18T20:27:50.085Z,3.60
2024-02-18T20:30:20.923Z,2.30
2024-02-18T20:32:49.367Z,2.20
2024-02-18T20:35:17.871Z,2.10
2024-02-18T20:37:46.340Z,2.70
2024-02-18T20:40:18.666Z,2.20
2024-02-18T20:42:51.735Z,2.30
2024-02-18T20:45:25.390Z,2.10
2024-02-18T20:47:54.499Z,1.80
2024-02-18T20:50:22.885Z,1.90
2024-02-18T20:52:51.968Z,2.00
2024-02-18T20:55:23.712Z,2.10
2024-02-18T20:57:53.008Z,1.90
2024-02-18T21:00:27.753Z,1.90
2024-02-18T21:03:00.668Z,1.50
2024-02-18T21:05:30.174Z,1.50
2024-02-18T21:08:00.277Z,1.80
2024-02-18T21:10:29.944Z,1.80
2024-02-18T21:12:59.524Z,1.80
2024-02-18T21:15:28.854Z,1.60
2024-02-18T21:17:57.198Z,1.80
2024-02-18T21:20:25.555Z,1.90
2024-02-18T21:22:54.192Z,1.40
2024-02-18T21:25:22.752Z,1.80
2024-02-18T21:27:51.506Z,1.80
2024-02-18T21:30:19.996Z,1.20
2024-02-18T21:32:49.583Z,1.60
2024-02-18T21:35:18.574Z,1.50
2024-02-18T21:37:47.648Z,1.30
2024-02-18T21:40:16.176Z,1.60
2024-02-18T21:42:44.570Z,1.30
2024-02-18T21:45:12.892Z,1.50
2024-02-18T21:47:41.226Z,1.30
2024-02-18T21:50:13.878Z,1.80
2024-02-18T21:52:42.979Z,1.60
2024-02-18T21:55:11.809Z,1.30
2024-02-18T21:57:40.649Z,1.80
2024-02-18T22:00:09.369Z,1.30
2024-02-18T22:02:37.974Z,1.30
2024-02-18T22:05:06.752Z,1.40
2024-02-18T22:07:38.431Z,1.50
2024-02-18T22:10:08.459Z,1.40
2024-02-18T22:12:36.876Z,1.30
2024-02-18T22:15:05.632Z,1.50
2024-02-18T22:17:34.029Z,1.60
2024-02-18T22:20:02.578Z,1.90
2024-02-18T22:22:31.277Z,1.40
2024-02-18T22:24:59.639Z,1.60
2024-02-18T22:27:28.027Z,1.40
2024-02-18T22:29:56.348Z,1.70
2024-02-18T22:32:24.790Z,2.20
2024-02-18T22:34:53.405Z,1.60
2024-02-18T22:37:21.958Z,1.90
2024-02-18T22:39:50.311Z,1.80
2024-02-18T22:42:18.636Z,1.50
2024-02-18T22:44:47.015Z,1.70
2024-02-18T22:47:15.396Z,1.70
2024-02-18T22:49:43.769Z,1.50
2024-02-18T22:52:12.078Z,1.90
2024-02-18T22:54:40.419Z,1.80
2024-02-18T22:57:08.745Z,1.60
2024-02-18T22:59:36.967Z,1.50
2024-02-18T23:02:05.894Z,1.80
2024-02-18T23:04:34.279Z,1.60
2024-02-18T23:07:07.797Z,1.20
2024-02-18T23:09:37.308Z,1.70
2024-02-18T23:12:06.020Z,1.40
2024-02-18T23:14:34.368Z,1.30
2024-02-18T23:17:02.803Z,1.80
2024-02-18T23:19:31.332Z,1.50
2024-02-18T23:21:59.803Z,2.10
2024-02-18T23:24:28.142Z,1.60
2024-02-18T23:26:56.445Z,1.70
2024-02-18T23:29:24.728Z,1.70
2024-02-18T23:31:53.081Z,1.90
2024-02-18T23:34:21.492Z,2.10
2024-02-18T23:36:50.129Z,1.90
2024-02-18T23:39:18.460Z,1.50
2024-02-18T23:41:46.767Z,1.80
2024-02-18T23:44:15.500Z,1.60
2024-02-18T23:46:44.333Z,2.00
2024-02-18T23:49:12.807Z,1.90
2024-02-18T23:51:41.451Z,1.70
2024-02-18T23:54:09.806Z,1.80
2024-02-18T23:56:38.276Z,2.00
2024-02-18T23:59:06.697Z,2.00
